Time;durP1;ratioP1;P1;durP2;ratioP2;P2;SDS_P1;SDS_P2;PMS_P1;PMS_P2;Temp;Humidity;BMP_temperature;BMP_pressure;BME280_temperature;BME280_humidity;BME280_pressure;Samples;Min_cycle;Max_cycle;Signal;HPM_P1;HPM_P2
2024/01/21 00:00:50;;;;;;;12.10;6.03;;;1.10;99.90;;;;;;5039235;28;20219;-78
2024/01/21 00:03:38;;;;;;;8.47;4.67;;;1.10;99.90;;;;;;5040495;28;20204;-78
2024/01/21 00:06:25;;;;;;;9.47;4.27;;;1.10;99.90;;;;;;5034588;28;20232;-78
2024/01/21 00:09:14;;;;;;;9.13;3.87;;;1.00;99.90;;;;;;5033935;28;20197;-78
2024/01/21 00:12:01;;;;;;;7.77;3.70;;;1.00;99.90;;;;;;5020974;28;20259;-78
2024/01/21 00:14:48;;;;;;;6.40;3.57;;;1.00;99.90;;;;;;5034452;28;20199;-79
2024/01/21 00:17:36;;;;;;;7.17;3.40;;;0.90;99.90;;;;;;5034514;28;20230;-77
2024/01/21 00:20:24;;;;;;;7.63;4.00;;;0.90;99.90;;;;;;5034861;28;20196;-77
2024/01/21 00:23:11;;;;;;;7.63;4.70;;;0.90;99.90;;;;;;5029131;28;20273;-78
2024/01/21 00:25:58;;;;;;;8.83;4.90;;;0.80;99.90;;;;;;5032930;28;20557;-78
2024/01/21 00:28:46;;;;;;;7.37;4.90;;;0.70;99.90;;;;;;5021205;28;20282;-78
2024/01/21 00:31:34;;;;;;;9.13;4.70;;;0.80;99.90;;;;;;5033686;28;20251;-78
2024/01/21 00:34:21;;;;;;;10.33;5.50;;;0.70;99.90;;;;;;5034695;28;20647;-80
2024/01/21 00:37:08;;;;;;;11.03;5.40;;;0.60;99.90;;;;;;5034629;28;20233;-78
2024/01/21 00:39:56;;;;;;;8.30;5.33;;;0.60;99.90;;;;;;5020329;28;20201;-79
2024/01/21 00:42:43;;;;;;;10.20;5.43;;;0.50;99.90;;;;;;5033813;28;20230;-78
2024/01/21 00:45:30;;;;;;;10.23;5.47;;;0.40;99.90;;;;;;5033952;28;20188;-79
2024/01/21 00:48:18;;;;;;;9.53;5.10;;;0.40;99.90;;;;;;5033312;28;20674;-79
2024/01/21 00:51:05;;;;;;;8.10;4.73;;;0.40;99.90;;;;;;5033825;28;20192;-79
2024/01/21 00:53:53;;;;;;;11.00;4.80;;;0.20;99.90;;;;;;5033138;28;20713;-79
2024/01/21 00:56:40;;;;;;;9.03;4.70;;;0.30;99.90;;;;;;5019577;28;20221;-79
2024/01/21 00:59:28;;;;;;;9.77;4.00;;;0.20;99.90;;;;;;5034155;28;20575;-79
2024/01/21 01:02:15;;;;;;;8.33;3.77;;;0.10;99.90;;;;;;5034526;28;20297;-79
2024/01/21 01:05:03;;;;;;;7.60;3.80;;;0.10;99.90;;;;;;5045424;28;20706;-79
2024/01/21 01:07:50;;;;;;;8.50;3.67;;;0.00;99.90;;;;;;5053414;28;20194;-80
2024/01/21 01:10:37;;;;;;;7.23;3.67;;;0.00;99.90;;;;;;5053395;28;20222;-79
2024/01/21 01:13:25;;;;;;;8.60;3.80;;;-0.10;99.90;;;;;;5039411;28;20204;-79
2024/01/21 01:16:12;;;;;;;11.70;3.50;;;-0.10;99.90;;;;;;5053280;28;20669;-79
2024/01/21 01:18:59;;;;;;;8.27;3.53;;;0.00;99.90;;;;;;5053151;28;20269;-79
2024/01/21 01:21:47;;;;;;;7.30;3.57;;;0.00;99.90;;;;;;5053126;28;20197;-80
2024/01/21 01:24:34;;;;;;;9.13;3.77;;;0.00;99.90;;;;;;5052432;28;20191;-79
2024/01/21 01:27:23;;;;;;;7.93;4.20;;;-0.10;99.90;;;;;;5038740;28;20217;-80
2024/01/21 01:30:11;;;;;;;8.70;4.73;;;-0.20;99.90;;;;;;5051691;28;20187;-80
2024/01/21 01:32:58;;;;;;;8.60;4.87;;;-0.20;99.90;;;;;;5052970;28;20206;-79
2024/01/21 01:35:45;;;;;;;12.50;5.77;;;-0.30;99.90;;;;;;5052400;28;20191;-80
2024/01/21 01:38:33;;;;;;;13.80;5.40;;;-0.30;99.90;;;;;;5038609;28;20223;-80
2024/01/21 01:41:20;;;;;;;9.10;5.40;;;-0.30;99.90;;;;;;5037998;28;20694;-80
2024/01/21 01:44:08;;;;;;;13.70;5.67;;;-0.30;99.90;;;;;;5051707;28;20224;-80
2024/01/21 01:46:56;;;;;;;16.07;6.33;;;-0.30;99.90;;;;;;5039114;28;20191;-79
2024/01/21 01:49:43;;;;;;;11.97;5.77;;;-0.40;99.90;;;;;;5037199;28;20317;-80
2024/01/21 01:52:31;;;;;;;14.80;7.10;;;-0.40;99.90;;;;;;5052635;28;20202;-80
2024/01/21 01:55:19;;;;;;;13.37;6.37;;;-0.30;99.90;;;;;;5052603;28;20247;-80
2024/01/21 01:58:06;;;;;;;12.83;6.10;;;-0.40;99.90;;;;;;5051913;28;20633;-80
2024/01/21 02:00:54;;;;;;;12.37;6.00;;;-0.40;99.90;;;;;;5051919;28;20194;-79
2024/01/21 02:03:41;;;;;;;13.27;6.20;;;-0.30;99.90;;;;;;5051750;28;20194;-79
2024/01/21 02:06:29;;;;;;;11.60;5.77;;;-0.40;99.90;;;;;;5032366;28;20202;-80
2024/01/21 02:09:16;;;;;;;13.13;5.67;;;-0.40;99.90;;;;;;5032822;28;20605;-80
2024/01/21 02:12:04;;;;;;;11.00;6.03;;;-0.50;99.90;;;;;;5031326;28;20706;-80
2024/01/21 02:14:51;;;;;;;15.97;6.00;;;-0.50;99.90;;;;;;5032368;28;20193;-80
2024/01/21 02:17:39;;;;;;;12.13;5.70;;;-0.60;99.90;;;;;;5032791;28;20712;-80
2024/01/21 02:20:27;;;;;;;16.50;6.10;;;-0.60;99.90;;;;;;5018651;28;20285;-80
2024/01/21 02:23:14;;;;;;;12.97;5.83;;;-0.60;99.90;;;;;;5020022;28;20355;-80
2024/01/21 02:26:02;;;;;;;13.27;5.80;;;-0.60;99.90;;;;;;5018843;28;20229;-80
2024/01/21 02:28:49;;;;;;;11.93;5.17;;;-0.70;99.90;;;;;;5032798;28;20194;-80
2024/01/21 02:31:36;;;;;;;12.83;5.60;;;-0.80;99.90;;;;;;5032236;28;20765;-80
2024/01/21 02:34:24;;;;;;;14.03;5.53;;;-0.80;99.90;;;;;;5018322;28;20285;-80
2024/01/21 02:37:11;;;;;;;15.13;5.90;;;-0.80;99.90;;;;;;5031409;28;20218;-80
2024/01/21 02:39:58;;;;;;;12.63;5.50;;;-0.80;99.90;;;;;;5033666;28;20276;-80
2024/01/21 02:42:46;;;;;;;8.73;5.00;;;-0.90;99.90;;;;;;5037061;28;20512;-80
2024/01/21 02:45:34;;;;;;;12.43;4.97;;;-0.90;99.90;;;;;;5036938;28;20200;-80
2024/01/21 02:48:22;;;;;;;9.60;4.80;;;-1.00;99.90;;;;;;5023795;28;20191;-80
2024/01/21 02:51:13;;;;;;;10.10;5.00;;;-1.00;99.90;;;;;;5036573;28;20192;-80
2024/01/21 02:54:01;;;;;;;8.57;4.60;;;-1.10;99.90;;;;;;5035682;28;20246;-80
2024/01/21 02:56:48;;;;;;;9.70;4.97;;;-1.10;99.90;;;;;;5035878;28;20221;-80
2024/01/21 02:59:36;;;;;;;10.77;4.90;;;-1.10;99.90;;;;;;5035802;28;20196;-80
2024/01/21 03:02:23;;;;;;;9.90;4.70;;;-1.00;99.90;;;;;;5035826;28;20284;-80
2024/01/21 03:05:10;;;;;;;11.27;4.57;;;-1.00;99.90;;;;;;5047674;28;20238;-80
2024/01/21 03:07:58;;;;;;;10.57;4.63;;;-1.10;99.90;;;;;;5054597;28;20204;-80
2024/01/21 03:10:45;;;;;;;9.93;5.00;;;-1.20;99.90;;;;;;5041796;28;20215;-80
2024/01/21 03:13:32;;;;;;;8.40;4.37;;;-1.20;99.90;;;;;;5055936;28;20290;-80
2024/01/21 03:16:20;;;;;;;10.13;4.33;;;-1.30;99.90;;;;;;5040728;28;20782;-80
2024/01/21 03:19:07;;;;;;;10.87;4.87;;;-1.30;99.90;;;;;;5041171;28;20220;-80
2024/01/21 03:21:54;;;;;;;12.23;5.07;;;-1.30;99.90;;;;;;5054796;28;20201;-80
2024/01/21 03:24:42;;;;;;;11.80;4.80;;;-1.30;99.90;;;;;;5054790;28;20678;-80
2024/01/21 03:27:29;;;;;;;9.20;4.43;;;-1.30;99.90;;;;;;5041258;28;20718;-80
2024/01/21 03:30:17;;;;;;;14.40;5.20;;;-1.30;99.90;;;;;;5055241;28;20595;-80
2024/01/21 03:33:04;;;;;;;10.10;4.70;;;-1.30;99.90;;;;;;5040989;28;20218;-80
2024/01/21 03:35:52;;;;;;;11.03;5.00;;;-1.30;99.90;;;;;;5054815;28;20279;-80
2024/01/21 03:38:40;;;;;;;13.93;4.77;;;-1.30;99.90;;;;;;5053917;28;20222;-80
2024/01/21 03:41:27;;;;;;;11.87;5.30;;;-1.40;99.90;;;;;;5041302;28;20219;-80
2024/01/21 03:44:14;;;;;;;10.67;4.80;;;-1.40;99.90;;;;;;5055085;28;20641;-80
2024/01/21 03:47:02;;;;;;;11.67;5.00;;;-1.40;99.90;;;;;;5040717;28;20327;-80
2024/01/21 03:49:51;;;;;;;10.97;4.90;;;-1.40;99.90;;;;;;5054831;28;20206;-80
2024/01/21 03:52:38;;;;;;;12.80;5.00;;;-1.40;99.90;;;;;;5053194;28;20214;-80
2024/01/21 03:55:26;;;;;;;14.20;5.17;;;-1.40;99.90;;;;;;5054757;28;20225;-80
2024/01/21 03:58:13;;;;;;;10.90;4.70;;;-1.50;99.90;;;;;;5054889;28;20297;-81
2024/01/21 04:01:03;;;;;;;10.03;4.90;;;-1.50;99.90;;;;;;5054726;28;20211;-80
2024/01/21 04:03:51;;;;;;;12.07;5.50;;;-1.50;99.90;;;;;;5039642;28;20202;-80
2024/01/21 04:06:40;;;;;;;12.93;5.33;;;-1.60;99.90;;;;;;5054109;28;20573;-81
2024/01/21 04:09:27;;;;;;;12.80;5.23;;;-1.60;99.90;;;;;;5054217;28;20192;-80
2024/01/21 04:12:14;;;;;;;11.87;5.47;;;-1.70;99.90;;;;;;5054300;28;20215;-80
2024/01/21 04:15:02;;;;;;;11.57;5.20;;;-1.70;99.90;;;;;;5040619;28;20195;-80
2024/01/21 04:17:49;;;;;;;10.70;5.17;;;-1.70;99.90;;;;;;5054217;28;20239;-80
2024/01/21 04:20:37;;;;;;;10.70;5.47;;;-1.70;99.90;;;;;;5053727;28;20679;-80
2024/01/21 04:23:24;;;;;;;13.93;5.77;;;-1.70;99.90;;;;;;5054160;28;20191;-80
2024/01/21 04:26:11;;;;;;;10.90;5.57;;;-1.70;99.90;;;;;;5053343;28;20703;-80
2024/01/21 04:28:59;;;;;;;13.20;5.33;;;-1.80;99.90;;;;;;5046815;28;20305;-80
2024/01/21 04:31:46;;;;;;;15.53;5.70;;;-1.90;99.90;;;;;;5054092;28;20270;-80
2024/01/21 04:34:34;;;;;;;11.97;5.70;;;-1.90;99.90;;;;;;5052882;28;20701;-80
2024/01/21 04:37:22;;;;;;;10.50;5.20;;;-1.90;99.90;;;;;;5054404;28;20209;-80
2024/01/21 04:40:10;;;;;;;14.60;5.33;;;-1.80;99.90;;;;;;5053246;28;20323;-80
2024/01/21 04:42:57;;;;;;;13.57;5.87;;;-1.60;99.90;;;;;;5054794;28;20252;-80
2024/01/21 04:45:45;;;;;;;11.90;5.63;;;-1.70;99.90;;;;;;5053208;28;20218;-80
2024/01/21 04:48:33;;;;;;;16.23;6.77;;;-1.70;99.90;;;;;;5053127;28;20682;-80
2024/01/21 04:51:20;;;;;;;16.93;6.47;;;-1.70;99.90;;;;;;5054248;28;20196;-80
2024/01/21 04:54:08;;;;;;;13.07;5.87;;;-1.80;99.90;;;;;;5052131;28;20195;-80
2024/01/21 04:56:55;;;;;;;14.17;6.53;;;-1.80;99.90;;;;;;5053098;28;20257;-80
2024/01/21 04:59:42;;;;;;;14.67;6.73;;;-1.80;99.90;;;;;;5052727;28;20301;-80
2024/01/21 05:02:30;;;;;;;21.90;6.43;;;-1.90;99.90;;;;;;5051739;28;20189;-80
2024/01/21 05:05:17;;;;;;;13.40;6.53;;;-1.90;99.90;;;;;;5053720;28;20357;-80
2024/01/21 05:08:04;;;;;;;11.57;5.80;;;-1.90;99.90;;;;;;5053295;28;20191;-80
2024/01/21 05:10:52;;;;;;;13.33;6.07;;;-1.80;99.90;;;;;;5039060;28;20195;-80
2024/01/21 05:13:39;;;;;;;13.73;6.20;;;-1.90;99.90;;;;;;5052610;28;20202;-80
2024/01/21 05:16:40;;;;;;;12.13;6.33;;;-2.00;99.90;;;;;;5052031;28;20192;-80
2024/01/21 05:19:28;;;;;;;14.67;6.13;;;-2.10;99.90;;;;;;5051980;28;20229;-80
2024/01/21 05:22:15;;;;;;;13.37;6.47;;;-2.20;99.90;;;;;;5053096;28;20569;-80
2024/01/21 05:25:03;;;;;;;12.23;6.33;;;-2.10;99.90;;;;;;5053080;28;20278;-80
2024/01/21 05:27:50;;;;;;;14.87;6.77;;;-2.10;99.90;;;;;;5053504;28;20214;-80
2024/01/21 05:30:38;;;;;;;13.67;6.47;;;-2.30;99.90;;;;;;5051880;28;20206;-80
2024/01/21 05:33:25;;;;;;;14.73;6.70;;;-2.40;99.90;;;;;;5052508;28;20675;-80
2024/01/21 05:36:13;;;;;;;13.73;6.50;;;-2.40;99.90;;;;;;5052887;28;20193;-80
2024/01/21 05:39:00;;;;;;;13.83;6.67;;;-2.50;99.90;;;;;;5051701;28;20382;-80
2024/01/21 05:42:17;;;;;;;12.97;6.43;;;-2.40;99.90;;;;;;5037524;28;20216;-81
2024/01/21 05:45:05;;;;;;;11.20;5.77;;;-2.50;99.90;;;;;;4990985;28;20198;-80
2024/01/21 05:47:52;;;;;;;11.50;6.23;;;-2.50;99.90;;;;;;4977645;28;20200;-80
2024/01/21 05:50:40;;;;;;;13.07;5.90;;;-2.50;99.90;;;;;;4990605;28;20210;-80
2024/01/21 05:53:27;;;;;;;10.73;5.83;;;-2.50;99.90;;;;;;4978260;28;20575;-80
2024/01/21 05:56:18;;;;;;;12.57;5.47;;;-2.50;99.90;;;;;;4992110;28;20725;-80
2024/01/21 05:59:05;;;;;;;11.80;6.43;;;-2.50;99.90;;;;;;4992055;28;20603;-81
2024/01/21 06:01:54;;;;;;;12.53;5.87;;;-2.60;99.90;;;;;;4965301;28;20291;-80
2024/01/21 06:04:41;;;;;;;9.57;5.57;;;-2.60;99.90;;;;;;4991311;28;20325;-80
2024/01/21 06:07:29;;;;;;;9.20;5.40;;;-2.50;99.90;;;;;;4991916;28;20205;-80
2024/01/21 06:10:16;;;;;;;9.53;5.40;;;-2.60;99.90;;;;;;4991875;28;20224;-81
2024/01/21 06:13:03;;;;;;;12.77;5.23;;;-2.60;99.90;;;;;;4992026;28;20670;-81
2024/01/21 06:15:51;;;;;;;12.37;5.33;;;-2.60;99.90;;;;;;4977408;28;20285;-80
2024/01/21 06:18:38;;;;;;;12.07;5.03;;;-2.50;99.90;;;;;;4990526;28;20225;-81
2024/01/21 06:21:26;;;;;;;9.63;4.70;;;-2.40;99.90;;;;;;5025502;28;20558;-81
2024/01/21 06:24:13;;;;;;;8.80;5.00;;;-2.20;99.90;;;;;;5038510;28;20669;-80
2024/01/21 06:27:00;;;;;;;10.63;4.90;;;-2.20;99.90;;;;;;5052089;28;20265;-80
2024/01/21 06:29:47;;;;;;;9.33;4.87;;;-2.10;99.90;;;;;;5052042;28;20705;-80
2024/01/21 06:32:35;;;;;;;11.83;5.20;;;-2.10;99.90;;;;;;5052100;28;20296;-81
2024/01/21 06:35:22;;;;;;;12.97;4.90;;;-2.20;99.90;;;;;;5051534;28;20193;-81
2024/01/21 06:38:10;;;;;;;8.87;5.03;;;-2.30;99.90;;;;;;5050941;28;20229;-81
2024/01/21 06:40:57;;;;;;;10.37;5.37;;;-2.30;99.90;;;;;;5052025;28;20202;-81
2024/01/21 06:43:45;;;;;;;10.90;4.83;;;-2.30;99.90;;;;;;5051468;28;20203;-81
2024/01/21 06:46:33;;;;;;;14.00;5.70;;;-2.30;99.90;;;;;;5037229;28;20190;-81
2024/01/21 06:49:21;;;;;;;13.03;5.10;;;-2.40;99.90;;;;;;5051404;28;20282;-81
2024/01/21 06:52:08;;;;;;;11.93;5.33;;;-2.40;99.90;;;;;;5050477;28;20268;-81
2024/01/21 06:54:55;;;;;;;11.83;5.33;;;-2.30;99.90;;;;;;5051322;28;20259;-80
2024/01/21 06:57:42;;;;;;;12.73;6.27;;;-2.30;99.90;;;;;;5036579;28;20207;-80
2024/01/21 07:00:31;;;;;;;14.03;6.00;;;-2.20;99.90;;;;;;5051840;28;20735;-81
2024/01/21 07:03:19;;;;;;;12.53;5.43;;;-2.00;99.90;;;;;;5052475;28;20197;-80
2024/01/21 07:06:09;;;;;;;13.13;6.20;;;-1.90;99.90;;;;;;5030991;28;20240;-80
2024/01/21 07:08:56;;;;;;;16.70;6.70;;;-1.90;99.90;;;;;;5031293;28;20204;-80
2024/01/21 07:11:43;;;;;;;17.17;7.90;;;-1.80;99.90;;;;;;5032189;28;20211;-80
2024/01/21 07:14:34;;;;;;;16.43;8.00;;;-1.80;99.90;;;;;;5032404;28;20227;-80
2024/01/21 07:17:21;;;;;;;17.07;8.17;;;-1.80;99.90;;;;;;5031652;28;20200;-81
2024/01/21 07:20:12;;;;;;;20.93;9.53;;;-1.70;99.90;;;;;;5032212;28;20221;-81
2024/01/21 07:22:59;;;;;;;18.00;9.47;;;-1.80;99.90;;;;;;5031031;28;20197;-81
2024/01/21 07:25:47;;;;;;;18.13;9.00;;;-1.80;99.90;;;;;;5032030;28;20201;-80
2024/01/21 07:28:35;;;;;;;23.03;9.50;;;-1.70;99.90;;;;;;5019809;28;20202;-80
2024/01/21 07:31:22;;;;;;;19.90;9.43;;;-1.60;99.90;;;;;;5022352;28;20281;-80
2024/01/21 07:34:10;;;;;;;23.93;10.03;;;-1.50;99.90;;;;;;5034625;28;20196;-81
2024/01/21 07:36:57;;;;;;;23.83;10.40;;;-1.40;99.90;;;;;;5035371;28;20193;-81
2024/01/21 07:39:45;;;;;;;23.47;10.43;;;-1.40;99.90;;;;;;5034952;28;20229;-81
2024/01/21 07:42:33;;;;;;;21.00;9.77;;;-1.30;99.90;;;;;;5035004;28;20215;-81
2024/01/21 07:45:21;;;;;;;23.10;11.03;;;-1.20;99.90;;;;;;5020996;28;20199;-81
2024/01/21 07:48:09;;;;;;;22.77;10.87;;;-0.90;99.90;;;;;;5035036;28;20208;-81
2024/01/21 07:50:56;;;;;;;23.13;11.20;;;-0.30;99.90;;;;;;5034830;28;20192;-82
2024/01/21 07:53:44;;;;;;;24.27;10.30;;;0.20;99.90;;;;;;5019964;28;20194;-81
2024/01/21 07:56:32;;;;;;;21.33;10.70;;;0.80;99.90;;;;;;5034866;28;20214;-81
2024/01/21 07:59:19;;;;;;;19.67;10.10;;;1.30;99.90;;;;;;5020693;28;20495;-81
2024/01/21 08:02:06;;;;;;;18.73;9.50;;;1.60;99.90;;;;;;5034681;28;20190;-82
2024/01/21 08:04:54;;;;;;;23.03;10.80;;;1.90;99.90;;;;;;5044819;28;20269;-82
2024/01/21 08:07:41;;;;;;;19.60;9.83;;;2.20;99.90;;;;;;5053988;28;20195;-81
2024/01/21 08:10:29;;;;;;;20.93;9.83;;;2.40;99.90;;;;;;5053993;28;20285;-81
2024/01/21 08:13:16;;;;;;;23.90;10.83;;;2.40;99.90;;;;;;5042423;28;20655;-81
2024/01/21 08:16:04;;;;;;;20.37;9.93;;;2.20;99.90;;;;;;5053787;28;20198;-79
2024/01/21 08:18:51;;;;;;;24.10;10.87;;;2.00;99.90;;;;;;5054335;28;20696;-82
2024/01/21 08:21:38;;;;;;;21.83;10.53;;;1.80;99.90;;;;;;5053792;28;20194;-80
2024/01/21 08:24:26;;;;;;;20.53;10.07;;;2.00;99.90;;;;;;5053220;28;20297;-80
2024/01/21 08:27:13;;;;;;;23.77;11.97;;;2.00;99.90;;;;;;5053470;28;20214;-80
2024/01/21 08:30:04;;;;;;;26.93;12.03;;;1.90;99.90;;;;;;5040046;28;20240;-80
2024/01/21 08:32:51;;;;;;;27.63;13.03;;;2.20;99.90;;;;;;5053406;28;20675;-80
2024/01/21 08:35:40;;;;;;;27.47;13.23;;;2.30;99.90;;;;;;5053526;28;20228;-80
2024/01/21 08:38:27;;;;;;;29.57;13.07;;;2.40;99.90;;;;;;5052876;28;20190;-80
2024/01/21 08:41:14;;;;;;;32.47;14.40;;;2.60;99.90;;;;;;5053245;28;20484;-81
2024/01/21 08:44:05;;;;;;;33.03;14.03;;;2.70;99.90;;;;;;5039455;28;20624;-80
2024/01/21 08:46:52;;;;;;;32.93;15.00;;;2.80;99.90;;;;;;5053172;28;20196;-81
2024/01/21 08:49:39;;;;;;;32.93;15.03;;;2.90;99.90;;;;;;5052596;28;20198;-80
2024/01/21 08:52:28;;;;;;;31.57;14.73;;;3.00;99.90;;;;;;5053655;28;20461;-80
2024/01/21 08:55:16;;;;;;;33.30;15.70;;;3.10;99.90;;;;;;5053627;28;20273;-80
2024/01/21 08:58:04;;;;;;;35.53;16.07;;;3.10;99.90;;;;;;5038165;28;20229;-80
2024/01/21 09:00:51;;;;;;;30.43;15.20;;;2.80;99.90;;;;;;5052944;28;20190;-80
2024/01/21 09:03:39;;;;;;;26.37;13.23;;;2.60;99.90;;;;;;5052804;28;20206;-81
2024/01/21 09:06:26;;;;;;;32.53;15.80;;;2.50;99.90;;;;;;5053312;28;20210;-82
2024/01/21 09:09:13;;;;;;;36.10;15.63;;;2.20;99.90;;;;;;5038568;28;20805;-81
2024/01/21 09:12:01;;;;;;;36.03;15.77;;;2.00;99.90;;;;;;5038603;28;20683;-81
2024/01/21 09:14:48;;;;;;;35.63;16.33;;;2.00;99.90;;;;;;5053246;28;20195;-81
2024/01/21 09:17:36;;;;;;;34.23;16.10;;;1.90;99.90;;;;;;5038642;28;20198;-80
2024/01/21 09:20:23;;;;;;;31.93;15.40;;;1.90;99.90;;;;;;5053599;28;20222;-80
2024/01/21 09:23:10;;;;;;;36.73;16.70;;;1.90;99.90;;;;;;5053049;28;20639;-80
2024/01/21 09:25:58;;;;;;;41.70;18.53;;;1.90;99.90;;;;;;5052061;28;20269;-79
2024/01/21 09:28:46;;;;;;;40.30;18.70;;;1.70;99.90;;;;;;5052936;28;20284;-79
2024/01/21 09:31:34;;;;;;;38.40;18.20;;;1.70;99.90;;;;;;5052897;28;20194;-80
2024/01/21 09:34:22;;;;;;;36.37;17.70;;;1.80;99.90;;;;;;5052879;28;20195;-80
2024/01/21 09:37:10;;;;;;;41.10;18.80;;;1.70;99.90;;;;;;5052314;28;20191;-79
2024/01/21 09:39:57;;;;;;;43.43;18.70;;;1.60;99.90;;;;;;5051550;28;20706;-79
2024/01/21 09:42:45;;;;;;;40.57;18.57;;;1.50;99.90;;;;;;5053130;28;20345;-79
2024/01/21 09:45:37;;;;;;;50.80;19.50;;;1.50;99.90;;;;;;5052069;28;20682;-80
2024/01/21 09:48:25;;;;;;;42.30;19.43;;;1.50;99.90;;;;;;5052526;28;20196;-79
2024/01/21 09:51:13;;;;;;;46.93;19.17;;;1.50;99.90;;;;;;5037225;28;20215;-79
2024/01/21 09:54:04;;;;;;;41.50;18.87;;;1.50;99.90;;;;;;5051483;28;20202;-79
2024/01/21 09:56:52;;;;;;;42.80;18.43;;;1.60;99.90;;;;;;5051847;28;20224;-80
2024/01/21 09:59:40;;;;;;;41.83;18.87;;;1.80;99.90;;;;;;5038288;28;20228;-79
2024/01/21 10:02:29;;;;;;;44.33;18.93;;;2.00;99.90;;;;;;5051890;28;20237;-79
2024/01/21 10:05:17;;;;;;;40.10;18.37;;;2.20;99.90;;;;;;5036996;28;20692;-80
2024/01/21 10:08:05;;;;;;;37.27;17.10;;;2.30;99.90;;;;;;5052845;28;20276;-79
2024/01/21 10:10:53;;;;;;;43.30;18.80;;;2.40;99.90;;;;;;5052554;28;20642;-80
2024/01/21 10:13:42;;;;;;;42.40;17.83;;;2.60;99.90;;;;;;5051676;28;20273;-80
2024/01/21 10:16:31;;;;;;;45.30;18.47;;;2.40;99.90;;;;;;5025153;28;20195;-80
2024/01/21 10:19:30;;;;;;;41.63;18.13;;;2.70;99.90;;;;;;5037933;28;20219;-80
2024/01/21 10:22:18;;;;;;;38.87;17.67;;;2.70;99.90;;;;;;5051545;28;20195;-79
2024/01/21 10:25:08;;;;;;;43.17;18.47;;;2.70;99.90;;;;;;5037970;28;20244;-79
2024/01/21 10:27:55;;;;;;;39.57;18.13;;;2.90;99.90;;;;;;5051731;28;20230;-80
2024/01/21 10:30:46;;;;;;;36.77;17.10;;;2.80;99.90;;;;;;5052072;28;20209;-80
2024/01/21 10:33:34;;;;;;;40.43;17.43;;;3.00;99.90;;;;;;5036960;28;20285;-80
2024/01/21 10:36:22;;;;;;;43.93;18.70;;;3.30;99.90;;;;;;5052043;28;20240;-79
2024/01/21 10:39:18;;;;;;;41.23;18.00;;;3.30;99.90;;;;;;5051425;28;20297;-80
2024/01/21 10:42:06;;;;;;;40.30;17.37;;;3.30;99.90;;;;;;5037869;28;20226;-80
2024/01/21 10:44:55;;;;;;;40.00;17.27;;;3.20;99.90;;;;;;5037845;28;20202;-79
2024/01/21 10:47:43;;;;;;;36.30;16.87;;;3.00;99.90;;;;;;5051915;28;20551;-79
2024/01/21 10:50:30;;;;;;;39.27;17.23;;;2.90;99.90;;;;;;5051826;28;20191;-79
2024/01/21 10:53:20;;;;;;;38.87;17.40;;;2.90;99.90;;;;;;5052001;28;20191;-80
2024/01/21 10:56:08;;;;;;;42.33;18.03;;;2.80;99.90;;;;;;5052060;28;20196;-79
2024/01/21 10:58:56;;;;;;;39.57;17.77;;;2.80;99.90;;;;;;5051520;28;20199;-79
2024/01/21 11:01:45;;;;;;;36.50;16.90;;;2.70;99.90;;;;;;5052633;28;20194;-79
2024/01/21 11:04:34;;;;;;;38.00;17.93;;;2.60;99.90;;;;;;5055544;28;20299;-79
2024/01/21 11:07:24;;;;;;;37.20;17.07;;;2.50;99.90;;;;;;5055299;28;20195;-79
2024/01/21 11:10:12;;;;;;;37.27;17.40;;;2.40;99.90;;;;;;5055094;28;20273;-79
2024/01/21 11:12:59;;;;;;;36.70;17.07;;;2.40;99.90;;;;;;5041340;28;20532;-79
2024/01/21 11:15:47;;;;;;;38.70;17.47;;;2.50;99.90;;;;;;5055519;28;20286;-79
2024/01/21 11:18:35;;;;;;;44.17;18.37;;;2.50;99.90;;;;;;5055743;28;20305;-79
2024/01/21 11:21:29;;;;;;;39.70;18.43;;;2.50;99.90;;;;;;5054617;28;20226;-79
2024/01/21 11:24:16;;;;;;;43.60;18.87;;;2.50;99.90;;;;;;5054033;28;20187;-79
2024/01/21 11:27:04;;;;;;;40.57;17.53;;;2.40;99.90;;;;;;5053927;28;20582;-79
2024/01/21 11:30:00;;;;;;;41.50;19.37;;;2.30;99.90;;;;;;5054164;28;20680;-79
2024/01/21 11:32:57;;;;;;;49.63;19.57;;;2.20;99.90;;;;;;5054502;28;20651;-79
2024/01/21 11:35:45;;;;;;;45.40;20.63;;;2.30;99.90;;;;;;5054264;28;20201;-79
2024/01/21 11:38:33;;;;;;;45.53;19.93;;;2.40;99.90;;;;;;5040262;28;20274;-79
2024/01/21 11:41:27;;;;;;;44.40;19.63;;;2.40;99.90;;;;;;5054227;28;20360;-79
2024/01/21 11:44:22;;;;;;;43.23;19.00;;;2.60;99.90;;;;;;5054639;28;20559;-80
2024/01/21 11:47:14;;;;;;;45.23;19.83;;;2.70;99.90;;;;;;5054866;28;20195;-79
2024/01/21 11:50:02;;;;;;;40.10;18.80;;;2.70;99.90;;;;;;5040390;28;20210;-79
2024/01/21 11:52:49;;;;;;;44.87;20.30;;;2.60;99.90;;;;;;5054196;28;20209;-79
2024/01/21 11:55:37;;;;;;;44.40;20.80;;;2.70;99.90;;;;;;5054170;28;20222;-79
2024/01/21 11:58:24;;;;;;;51.57;21.80;;;2.80;99.90;;;;;;5038545;28;20336;-79
2024/01/21 12:01:12;;;;;;;45.33;20.53;;;2.80;99.90;;;;;;5053385;28;20311;-79
2024/01/21 12:04:03;;;;;;;46.67;20.77;;;2.70;99.90;;;;;;5039589;28;20194;-78
2024/01/21 12:06:52;;;;;;;47.97;22.30;;;2.80;99.90;;;;;;5054982;28;20666;-79
2024/01/21 12:09:40;;;;;;;49.70;22.37;;;2.70;99.90;;;;;;5055005;28;20201;-79
2024/01/21 12:12:27;;;;;;;46.53;21.27;;;2.80;99.90;;;;;;5053728;28;20304;-79
2024/01/21 12:15:15;;;;;;;48.87;22.33;;;2.80;99.90;;;;;;5053687;28;20190;-79
2024/01/21 12:18:03;;;;;;;46.70;20.87;;;2.80;99.90;;;;;;5054836;28;20710;-78
2024/01/21 12:20:50;;;;;;;47.30;20.70;;;2.70;99.90;;;;;;5054183;28;20671;-78
2024/01/21 12:23:43;;;;;;;46.87;20.40;;;2.60;99.90;;;;;;5054664;28;20195;-79
2024/01/21 12:26:30;;;;;;;45.60;20.27;;;2.70;99.90;;;;;;5053442;28;20215;-78
2024/01/21 12:29:21;;;;;;;42.77;18.63;;;2.80;99.90;;;;;;5053670;28;20199;-79
2024/01/21 12:32:09;;;;;;;42.67;18.57;;;2.80;99.90;;;;;;5054089;28;20272;-79
2024/01/21 12:34:58;;;;;;;41.87;18.30;;;2.80;99.90;;;;;;5053291;28;20289;-79
2024/01/21 12:37:46;;;;;;;41.67;17.93;;;2.80;99.90;;;;;;5052547;28;20246;-79
2024/01/21 12:40:34;;;;;;;47.30;19.47;;;2.90;99.90;;;;;;5053324;28;21132;-78
2024/01/21 12:43:21;;;;;;;40.10;18.83;;;2.70;99.90;;;;;;5052641;28;20278;-79
2024/01/21 12:46:12;;;;;;;43.60;19.83;;;2.70;99.90;;;;;;5053281;28;20195;-79
2024/01/21 12:49:00;;;;;;;43.57;19.47;;;2.70;99.90;;;;;;5053329;28;20199;-79
2024/01/21 12:51:48;;;;;;;46.60;19.50;;;2.70;99.90;;;;;;5052779;28;20269;-79
2024/01/21 12:54:36;;;;;;;42.57;18.57;;;2.60;99.90;;;;;;5052996;28;20195;-79
2024/01/21 12:57:23;;;;;;;47.40;19.10;;;2.60;99.90;;;;;;5052948;28;20213;-78
2024/01/21 13:00:12;;;;;;;43.53;18.83;;;2.60;99.90;;;;;;5052958;28;20244;-79
2024/01/21 13:03:00;;;;;;;40.10;17.53;;;2.60;99.90;;;;;;5039512;28;20201;-79
2024/01/21 13:05:48;;;;;;;42.23;18.73;;;2.60;99.90;;;;;;5052819;28;20589;-79
2024/01/21 13:08:38;;;;;;;42.43;18.20;;;2.70;99.90;;;;;;5038638;28;20646;-78
2024/01/21 13:11:26;;;;;;;41.10;18.57;;;2.60;99.90;;;;;;5038534;28;20349;-79
2024/01/21 13:14:13;;;;;;;39.93;17.57;;;2.60;99.90;;;;;;5037911;28;20197;-79
2024/01/21 13:17:13;;;;;;;42.37;18.87;;;2.50;99.90;;;;;;5052502;28;20199;-78
2024/01/21 13:20:01;;;;;;;40.90;17.73;;;2.50;99.90;;;;;;5052702;28;20228;-79
2024/01/21 13:22:49;;;;;;;39.90;18.10;;;2.40;99.90;;;;;;5052484;28;20568;-79
2024/01/21 13:25:36;;;;;;;37.37;17.83;;;2.50;99.90;;;;;;5051583;28;20231;-79
2024/01/21 13:31:13;;;;;;;42.10;19.23;;;2.50;99.90;;;;;;5052306;28;20191;-79
2024/01/21 13:34:01;;;;;;;42.93;19.77;;;2.60;99.90;;;;;;5052881;28;20202;-80
2024/01/21 13:36:49;;;;;;;43.20;19.47;;;2.60;99.90;;;;;;5038131;28;20683;-80
2024/01/21 13:39:37;;;;;;;43.37;20.30;;;2.40;99.90;;;;;;5053300;28;20656;-80
2024/01/21 13:42:24;;;;;;;47.17;20.57;;;2.50;99.90;;;;;;5051495;28;20214;-81
2024/01/21 13:45:12;;;;;;;48.20;20.30;;;2.50;99.90;;;;;;5051743;28;20202;-78
2024/01/21 13:48:01;;;;;;;45.50;20.20;;;2.60;99.90;;;;;;5052452;28;20766;-79
2024/01/21 13:50:49;;;;;;;44.80;20.23;;;2.70;99.90;;;;;;5037951;28;20241;-79
2024/01/21 13:53:36;;;;;;;40.47;20.13;;;2.60;99.90;;;;;;5051368;28;20237;-79
2024/01/21 13:56:24;;;;;;;41.33;19.83;;;2.60;99.90;;;;;;5051955;28;20221;-78
2024/01/21 13:59:13;;;;;;;45.33;19.70;;;2.60;99.90;;;;;;5052393;28;20287;-81
2024/01/21 14:02:00;;;;;;;45.37;19.93;;;2.60;99.90;;;;;;5051836;28;20223;-81
2024/01/21 14:04:59;;;;;;;41.33;17.67;;;2.60;99.90;;;;;;5039444;28;20234;-79
2024/01/21 14:07:46;;;;;;;51.60;24.13;;;2.50;99.90;;;;;;5051071;28;20421;-81
2024/01/21 14:10:34;;;;;;;46.67;19.60;;;2.40;99.90;;;;;;5037032;28;20198;-80
2024/01/21 14:13:23;;;;;;;43.50;18.60;;;2.50;99.90;;;;;;5036627;28;20195;-81
2024/01/21 14:16:10;;;;;;;43.70;18.83;;;2.60;99.90;;;;;;5051726;28;20550;-81
2024/01/21 14:18:57;;;;;;;39.80;17.87;;;2.50;99.90;;;;;;5051069;28;20197;-81
2024/01/21 14:21:45;;;;;;;37.97;17.47;;;2.40;99.90;;;;;;5036402;28;20222;-80
2024/01/21 14:24:34;;;;;;;39.83;17.50;;;2.30;99.90;;;;;;5051717;28;20197;-81
2024/01/21 14:27:23;;;;;;;38.80;16.23;;;2.20;99.90;;;;;;5051583;28;20589;-80